ADDS METAR Data INFO
IDs: Format: Raw Decoded Include TAF

Data at: 0435 UTC 28 Jul 2017

KBWD 280415Z AUTO 16005KT 10SM CLR 28/17 A2996 RMK AO2
KBWD 280355Z AUTO 15003KT 10SM CLR 28/17 A2996 RMK AO2
KBWD 280335Z AUTO 15004KT 10SM CLR 29/16 A2995 RMK AO2
KBWD 280315Z AUTO 14005KT 10SM CLR 29/16 A2994 RMK AO2
KBWD 280255Z AUTO 14006KT 10SM CLR 29/15 A2994 RMK AO2
KBWD 280235Z AUTO 13005KT 10SM CLR 29/16 A2993 RMK AO2
KBWD 280215Z AUTO 12006KT 10SM CLR 30/15 A2992 RMK AO2
KBWD 280155Z AUTO 15006KT 10SM CLR 32/15 A2992 RMK AO2
KBWD 280135Z AUTO 14006KT 10SM CLR 33/14 A2991 RMK AO2
KBWD 280115Z AUTO 15005KT 10SM -RA CLR 33/14 A2991 RMK AO2
KBWD 280055Z AUTO 15008KT 10SM -RA CLR 35/14 A2991 RMK AO2 P0008
KBWD 280035Z AUTO 15006KT 10SM -RA CLR 35/14 A2991 RMK AO2 P0006
KBWD 280015Z AUTO 16007KT 10SM RA CLR 36/14 A2992 RMK AO2 P0002
KBWD 272355Z AUTO 15007KT 10SM RA CLR 37/13 A2992 RMK AO2 P0011
KBWD 272335Z AUTO 15007KT 10SM RA CLR 37/14 A2992 RMK AO2 P0007
KBWD 272315Z AUTO 17007KT 10SM RA CLR 37/13 A2993 RMK AO2 P0003
KBWD 272255Z AUTO 15004KT 10SM RA CLR 37/13 A2994 RMK AO2 P0014
KBWD 272235Z AUTO 11007KT 090V150 10SM RA CLR 37/13 A2994 RMK AO2 P0009
KBWD 272215Z AUTO 14008KT 10SM RA CLR 37/14 A2995 RMK AO2 P0003
KBWD 272155Z AUTO 10006KT 10SM RA CLR 37/13 A2996 RMK AO2 P0011
KBWD 272135Z AUTO 10004KT 060V160 10SM RA CLR 37/13 A2997 RMK AO2 P0006
KBWD 272115Z AUTO 12009KT 10SM RA CLR 37/14 A2997 RMK AO2 P0002
KBWD 272055Z AUTO 16008KT 110V180 10SM -RA CLR 37/14 A2998 RMK AO2 P0007
KBWD 272035Z AUTO 14009G15KT 120V190 10SM -RA CLR 37/15 A2998 RMK AO2 P0004
KBWD 272015Z AUTO 17009KT 120V180 10SM -RA CLR 37/17 A2999 RMK AO2 P0001
KBWD 271955Z AUTO 13007KT 10SM -RA CLR 37/17 A3000 RMK AO2 P0003
KBWD 271935Z AUTO 15006KT 10SM -RA CLR 36/16 A3001 RMK AO2 P0001
KBWD 271915Z AUTO 14007KT 10SM -RA CLR 36/16 A3002 RMK AO2
KBWD 271855Z AUTO 17006KT 10SM -RA CLR 35/17 A3003 RMK AO2 P0003
KBWD 271835Z AUTO 17005KT 10SM -RA CLR 35/16 A3004 RMK AO2 P0002
KBWD 271815Z AUTO 17005KT 10SM -RA CLR 35/17 A3005 RMK AO2
KBWD 271755Z AUTO 15005KT 10SM -RA CLR 34/17 A3006 RMK AO2 P0003
KBWD 271735Z AUTO 16005KT 10SM -RA CLR 34/17 A3007 RMK AO2 P0002
KBWD 271715Z AUTO 23006KT 190V260 10SM -RA CLR 33/17 A3008 RMK AO2
KBWD 271655Z AUTO 17007KT 150V210 10SM -RA CLR 33/17 A3008 RMK AO2 P0001
KBWD 271635Z AUTO 16006KT 10SM -RA CLR 32/18 A3008 RMK AO2
KBWD 271615Z AUTO 16004KT 10SM -RA CLR 32/18 A3009 RMK AO2
KBWD 271555Z AUTO 18004KT 10SM CLR 30/18 A3009 RMK AO2
KBWD 271535Z AUTO 00000KT 10SM CLR 30/18 A3009 RMK AO2
KBWD 271515Z AUTO 19008KT 10SM CLR 29/18 A3009 RMK AO2
KBWD 271455Z AUTO 19006KT 10SM CLR 29/18 A3009 RMK AO2
KBWD 271435Z AUTO 19010KT 10SM CLR 28/19 A3009 RMK AO2
KBWD 271415Z AUTO 20009KT 10SM CLR 28/19 A3008 RMK AO2
KBWD 271355Z AUTO 22003KT 10SM CLR 27/19 A3008 RMK AO2
KBWD 271335Z AUTO 21005KT 10SM CLR 26/19 A3007 RMK AO2
KBWD 271315Z AUTO 17003KT 10SM CLR 25/19 A3007 RMK AO2
KBWD 271255Z AUTO 17004KT 10SM CLR 24/19 A3007 RMK AO2
KBWD 271235Z AUTO 16003KT 10SM CLR 23/19 A3007 RMK AO2
KBWD 271215Z AUTO 14004KT 10SM CLR 22/19 A3006 RMK AO2
KBWD 271155Z AUTO 14004KT 10SM CLR 22/19 A3006 RMK AO2
KBWD 271135Z AUTO 14004KT 10SM FEW039 22/19 A3006 RMK AO2
KBWD 271115Z AUTO 15004KT 10SM SCT034 SCT040 BKN047 23/19 A3006 RMK AO2
KBWD 271055Z AUTO 15004KT 10SM FEW030 SCT038 BKN047 23/19 A3006 RMK AO2
KBWD 271035Z AUTO 16003KT 10SM FEW036 BKN048 24/19 A3006 RMK AO2
KBWD 271015Z AUTO 17005KT 10SM BKN048 24/19 A3005 RMK AO2
KBWD 270955Z AUTO 16005KT 10SM BKN048 24/19 A3005 RMK AO2
KBWD 270935Z AUTO 17006KT 10SM FEW039 BKN048 25/19 A3004 RMK AO2
KBWD 270915Z AUTO 18005KT 10SM BKN044 BKN050 25/18 A3005 RMK AO2
KBWD 270855Z AUTO 18005KT 10SM SCT043 BKN050 25/18 A3005 RMK AO2
KBWD 270835Z AUTO 18010G15KT 10SM FEW047 26/18 A3004 RMK AO2
KBWD 270815Z AUTO 16008KT 10SM FEW047 26/18 A3005 RMK AO2
KBWD 270755Z AUTO 18011G14KT 10SM FEW049 27/18 A3005 RMK AO2
KBWD 270735Z AUTO 18009KT 10SM FEW041 FEW046 27/18 A3005 RMK AO2
KBWD 270715Z AUTO 18007KT 10SM FEW044 27/18 A3005 RMK AO2
KBWD 270655Z AUTO 17008KT 10SM CLR 27/19 A3004 RMK AO2
KBWD 270635Z AUTO 17007KT 10SM CLR 28/19 A3004 RMK AO2
KBWD 270615Z AUTO 16008G14KT 10SM CLR 28/19 A3004 RMK AO2
KBWD 270555Z AUTO 16008G14KT 10SM CLR 28/18 A3004 RMK AO2
KBWD 270535Z AUTO 16008G14KT 10SM CLR 28/18 A3003 RMK AO2
KBWD 270515Z AUTO 16008KT 10SM CLR 29/18 A3003 RMK AO2
KBWD 270455Z AUTO 15007G14KT 10SM CLR 29/17 A3003 RMK AO2
KBWD 270435Z AUTO 15008KT 10SM CLR 29/17 A3003 RMK AO2
KBWD 270415Z AUTO 13006KT 10SM CLR 28/17 A3002 RMK AO2
KBWD 270355Z AUTO 13006KT 10SM CLR 28/17 A3002 RMK AO2
KBWD 270335Z AUTO 13006KT 10SM CLR 28/17 A3001 RMK AO2
KBWD 270315Z AUTO 13005KT 10SM CLR 29/17 A3001 RMK AO2
KBWD 270255Z AUTO 14005KT 10SM CLR 30/17 A3001 RMK AO2
KBWD 270235Z AUTO 14006KT 10SM CLR 31/17 A3001 RMK AO2
KBWD 270215Z AUTO 14006KT 10SM CLR 32/16 A3000 RMK AO2
KBWD 270155Z AUTO 14007KT 10SM CLR 32/16 A3000 RMK AO2
KBWD 270135Z AUTO 15007KT 10SM CLR 33/16 A2999 RMK AO2
KBWD 270115Z AUTO 15008KT 10SM -RA FEW085 34/15 A2999 RMK AO2
KBWD 270055Z AUTO 15006G14KT 10SM -RA FEW085 34/15 A2999 RMK AO2 P0005
KBWD 270035Z AUTO 14008KT 10SM -RA CLR 35/15 A2998 RMK AO2 P0004
KBWD 270015Z AUTO 15008KT 130V190 10SM -RA CLR 35/15 A2998 RMK AO2 P0002
KBWD 262355Z AUTO 17008KT 10SM RA CLR 36/14 A2998 RMK AO2 P0011
KBWD 262335Z AUTO 13007KT 10SM RA CLR 36/14 A2998 RMK AO2 P0007
KBWD 262315Z AUTO 16009KT 10SM RA CLR 36/15 A2998 RMK AO2 P0002
KBWD 262255Z AUTO 14009G14KT 10SM RA CLR 36/15 A2998 RMK AO2 P0011
KBWD 262235Z AUTO 16009G18KT 10SM RA FEW085 37/15 A2999 RMK AO2 P0006
KBWD 262215Z AUTO 18009G14KT 10SM RA CLR 37/15 A2999 RMK AO2 P0002
KBWD 262155Z AUTO 19011G15KT 10SM RA CLR 37/15 A3000 RMK AO2 P0007
KBWD 262135Z AUTO 15013KT 10SM -RA CLR 37/15 A3000 RMK AO2 P0004
KBWD 262115Z AUTO 15006G14KT 10SM -RA CLR 37/15 A3001 RMK AO2 P0001
KBWD 262055Z AUTO 14010G15KT 10SM -RA CLR 36/16 A3002 RMK AO2 P0004
KBWD 262035Z AUTO 16014KT 10SM -RA CLR 36/17 A3003 RMK AO2 P0002
KBWD 262015Z AUTO 14010G17KT 10SM -RA CLR 36/17 A3004 RMK AO2
KBWD 261955Z AUTO 14010G19KT 10SM -RA CLR 36/17 A3005 RMK AO2 P0001
KBWD 261935Z AUTO 13010G16KT 110V170 10SM -RA CLR 35/17 A3006 RMK AO2
KBWD 261915Z AUTO 18009G18KT 150V210 10SM CLR 35/18 A3007 RMK AO2
KBWD 261855Z AUTO 17010G15KT 10SM CLR 35/18 A3008 RMK AO2
KBWD 261835Z AUTO 20009G17KT 10SM CLR 34/18 A3008 RMK AO2
KBWD 261815Z AUTO 19008G17KT 10SM CLR 34/18 A3009 RMK AO2
KBWD 261755Z AUTO 18009G15KT 10SM CLR 34/19 A3009 RMK AO2
KBWD 261735Z AUTO 18007G17KT 10SM CLR 33/19 A3010 RMK AO2
KBWD 261715Z AUTO 16012G18KT 10SM CLR 33/20 A3010 RMK AO2
KBWD 261655Z AUTO 20010G16KT 10SM CLR 32/20 A3011 RMK AO2